CES443 ZJSY-ZSPD
Flight info
| Callsign | CES443 |
|---|---|
| Flight time | N/A |
| Altitude | 41100 |
| Route | PORAP9YD PORAP W222 NUMKU W223 AGTEL W71 LH DCT GYA A599 POU G471 EGEDA/K0898S1220 G471 PLT/K0895S1250 A599 ELNEX G204 SHZ W58 BK |
| Aircraft | A359/H-SDE2E3GHIJ3J4J5LM1ORWXY/LB1D1 |
Departure
| Time | 2026-04-29 13:35 |
|---|---|
| Airport | Sanya Phoenix International Airport (ZJSY) |
Arrival
| Time | N/A |
|---|---|
| Airport | Shanghai Pudong International Airport (ZSPD) |
| Time | Latitude | Longitude | Altitude | Speed | Heading |
|---|---|---|---|---|---|
| 2026-04-29 13:27 | 18.30451 | 109.39884 | 94 ft | 0 kts | 263° |
| 2026-04-29 13:29 | 18.30453 | 109.39901 | 94 ft | 2 kts | 261° |
| 2026-04-29 13:29 | 18.30456 | 109.39917 | 92 ft | 2 kts | 256° |
| 2026-04-29 13:30 | 18.30460 | 109.39934 | 92 ft | 2 kts | 251° |
| 2026-04-29 13:30 | 18.30467 | 109.39950 | 91 ft | 2 kts | 242° |
| 2026-04-29 13:30 | 18.30476 | 109.39964 | 92 ft | 2 kts | 226° |
| 2026-04-29 13:30 | 18.30489 | 109.39975 | 91 ft | 2 kts | 197° |
| 2026-04-29 13:31 | 18.30503 | 109.39977 | 91 ft | 1 kts | 174° |
| 2026-04-29 13:31 | 18.30504 | 109.39977 | 94 ft | 0 kts | 172° |
| 2026-04-29 13:32 | 18.30502 | 109.39977 | 91 ft | 2 kts | 173° |
| 2026-04-29 13:32 | 18.30476 | 109.39980 | 93 ft | 6 kts | 175° |
| 2026-04-29 13:32 | 18.30429 | 109.39987 | 94 ft | 8 kts | 171° |
| 2026-04-29 13:32 | 18.30390 | 109.39993 | 91 ft | 9 kts | 173° |
| 2026-04-29 13:33 | 18.30310 | 109.39971 | 95 ft | 9 kts | 239° |
| 2026-04-29 13:33 | 18.30293 | 109.39899 | 93 ft | 11 kts | 261° |
| 2026-04-29 13:33 | 18.30285 | 109.39841 | 92 ft | 13 kts | 262° |
| 2026-04-29 13:33 | 18.30264 | 109.39706 | 94 ft | 15 kts | 253° |
| 2026-04-29 13:34 | 18.30219 | 109.39648 | 95 ft | 16 kts | 212° |
| 2026-04-29 13:34 | 18.30121 | 109.39642 | 97 ft | 14 kts | 171° |
| 2026-04-29 13:34 | 18.30088 | 109.39673 | 94 ft | 2 kts | 83° |
| 2026-04-29 13:34 | 18.30101 | 109.39772 | 97 ft | 40 kts | 82° |
| 2026-04-29 13:35 | 18.30144 | 109.40096 | 96 ft | 90 kts | 82° |
| 2026-04-29 13:35 | 18.30258 | 109.40968 | 91 ft | 151 kts | 82° |
| 2026-04-29 13:35 | 18.30440 | 109.42144 | 614 ft | 160 kts | 82° |
| 2026-04-29 13:35 | 18.30593 | 109.43305 | 1274 ft | 165 kts | 85° |
| 2026-04-29 13:36 | 18.30723 | 109.44613 | 1615 ft | 195 kts | 85° |
| 2026-04-29 13:36 | 18.30879 | 109.46102 | 2167 ft | 210 kts | 85° |
| 2026-04-29 13:36 | 18.30566 | 109.47596 | 2934 ft | 215 kts | 126° |
| 2026-04-29 13:36 | 18.29358 | 109.48499 | 3600 ft | 219 kts | 166° |
| 2026-04-29 13:37 | 18.27845 | 109.48487 | 4259 ft | 221 kts | 200° |
| 2026-04-29 13:37 | 18.26601 | 109.47573 | 4956 ft | 222 kts | 236° |
| 2026-04-29 13:37 | 18.26106 | 109.46069 | 5650 ft | 222 kts | 272° |
| 2026-04-29 13:37 | 18.26516 | 109.44526 | 6376 ft | 222 kts | 300° |
| 2026-04-29 13:38 | 18.27306 | 109.43117 | 7066 ft | 225 kts | 303° |
| 2026-04-29 13:38 | 18.28161 | 109.41731 | 7832 ft | 227 kts | 307° |
| 2026-04-29 13:38 | 18.29312 | 109.40602 | 8639 ft | 230 kts | 331° |
| 2026-04-29 13:38 | 18.30856 | 109.40157 | 9389 ft | 237 kts | 0° |
| 2026-04-29 13:39 | 18.32498 | 109.40632 | 9832 ft | 260 kts | 33° |
| 2026-04-29 13:39 | 18.33711 | 109.42126 | 10147 ft | 284 kts | 67° |
| 2026-04-29 13:39 | 18.34644 | 109.44020 | 10330 ft | 308 kts | 56° |
| 2026-04-29 13:39 | 18.35996 | 109.45877 | 10565 ft | 330 kts | 51° |
| 2026-04-29 13:40 | 18.37531 | 109.47777 | 10811 ft | 350 kts | 50° |
| 2026-04-29 13:40 | 18.39168 | 109.49761 | 11073 ft | 367 kts | 49° |
| 2026-04-29 13:40 | 18.40871 | 109.51808 | 11507 ft | 376 kts | 49° |
| 2026-04-29 13:40 | 18.42610 | 109.53895 | 12084 ft | 382 kts | 48° |
| 2026-04-29 13:41 | 18.44381 | 109.56021 | 12663 ft | 387 kts | 48° |
| 2026-04-29 13:41 | 18.46158 | 109.58155 | 13283 ft | 390 kts | 49° |
| 2026-04-29 13:41 | 18.48017 | 109.60244 | 13834 ft | 393 kts | 42° |
| 2026-04-29 13:41 | 18.50170 | 109.61973 | 14312 ft | 394 kts | 30° |
| 2026-04-29 13:42 | 18.52608 | 109.63293 | 14833 ft | 396 kts | 24° |
| 2026-04-29 13:42 | 18.55139 | 109.64500 | 15335 ft | 400 kts | 23° |
| 2026-04-29 13:42 | 18.57691 | 109.65710 | 15815 ft | 404 kts | 23° |
| 2026-04-29 13:42 | 18.60268 | 109.66936 | 16275 ft | 408 kts | 23° |
| 2026-04-29 13:43 | 18.62868 | 109.68178 | 16769 ft | 413 kts | 23° |
| 2026-04-29 13:43 | 18.65494 | 109.69434 | 17223 ft | 417 kts | 23° |
| 2026-04-29 13:43 | 18.68148 | 109.70705 | 17695 ft | 421 kts | 23° |
| 2026-04-29 13:43 | 18.70825 | 109.71988 | 18165 ft | 425 kts | 23° |
| 2026-04-29 13:44 | 18.73519 | 109.73275 | 18584 ft | 426 kts | 22° |
| 2026-04-29 13:44 | 18.76234 | 109.74566 | 18989 ft | 430 kts | 23° |
| 2026-04-29 13:44 | 18.78962 | 109.75880 | 19406 ft | 433 kts | 23° |
| 2026-04-29 13:44 | 18.81712 | 109.77213 | 19797 ft | 435 kts | 23° |
| 2026-04-29 13:45 | 18.84478 | 109.78537 | 20177 ft | 439 kts | 23° |
| 2026-04-29 13:45 | 18.87272 | 109.79879 | 20600 ft | 442 kts | 23° |
| 2026-04-29 13:45 | 18.90084 | 109.81233 | 21005 ft | 446 kts | 23° |
| 2026-04-29 13:45 | 18.92920 | 109.82599 | 21443 ft | 449 kts | 23° |
| 2026-04-29 13:46 | 18.95778 | 109.83975 | 21862 ft | 453 kts | 23° |
| 2026-04-29 13:46 | 18.98620 | 109.85344 | 22279 ft | 456 kts | 23° |
| 2026-04-29 13:46 | 19.01520 | 109.86740 | 22681 ft | 459 kts | 23° |
| 2026-04-29 13:46 | 19.04432 | 109.88143 | 23122 ft | 462 kts | 23° |
| 2026-04-29 13:47 | 19.07366 | 109.89557 | 23535 ft | 465 kts | 23° |
| 2026-04-29 13:47 | 19.10326 | 109.90984 | 23880 ft | 468 kts | 23° |
| 2026-04-29 13:47 | 19.13309 | 109.92428 | 24238 ft | 470 kts | 24° |
| 2026-04-29 13:47 | 19.16288 | 109.93866 | 24633 ft | 472 kts | 24° |
| 2026-04-29 13:48 | 19.19285 | 109.95310 | 25054 ft | 474 kts | 24° |
| 2026-04-29 13:48 | 19.22299 | 109.96764 | 25485 ft | 476 kts | 24° |
| 2026-04-29 13:48 | 19.25322 | 109.98225 | 25927 ft | 479 kts | 24° |
| 2026-04-29 13:48 | 19.28362 | 109.99689 | 26374 ft | 481 kts | 24° |
| 2026-04-29 13:49 | 19.31419 | 110.01139 | 26825 ft | 483 kts | 23° |
| 2026-04-29 13:49 | 19.34501 | 110.02600 | 27266 ft | 486 kts | 24° |
| 2026-04-29 13:49 | 19.37556 | 110.04070 | 27689 ft | 489 kts | 24° |
| 2026-04-29 13:49 | 19.40660 | 110.05575 | 28123 ft | 492 kts | 24° |
| 2026-04-29 13:50 | 19.43786 | 110.07092 | 28551 ft | 495 kts | 24° |
| 2026-04-29 13:50 | 19.46920 | 110.08613 | 28957 ft | 497 kts | 24° |
| 2026-04-29 13:50 | 19.50075 | 110.10142 | 29336 ft | 500 kts | 24° |
| 2026-04-29 13:50 | 19.53253 | 110.11680 | 29718 ft | 503 kts | 24° |
| 2026-04-29 13:51 | 19.56447 | 110.13226 | 30111 ft | 506 kts | 25° |
| 2026-04-29 13:51 | 19.59656 | 110.14779 | 30396 ft | 509 kts | 24° |
| 2026-04-29 13:51 | 19.62887 | 110.16342 | 30710 ft | 511 kts | 24° |
| 2026-04-29 13:51 | 19.66129 | 110.17912 | 31088 ft | 512 kts | 24° |
| 2026-04-29 13:52 | 19.69372 | 110.19482 | 31408 ft | 513 kts | 24° |
| 2026-04-29 13:52 | 19.72596 | 110.21045 | 31673 ft | 515 kts | 24° |
| 2026-04-29 13:52 | 19.75872 | 110.22633 | 31952 ft | 517 kts | 24° |
| 2026-04-29 13:52 | 19.79148 | 110.24222 | 32224 ft | 519 kts | 24° |
| 2026-04-29 13:53 | 19.82441 | 110.25820 | 32485 ft | 521 kts | 24° |
| 2026-04-29 13:53 | 19.85748 | 110.27425 | 32774 ft | 522 kts | 24° |
| 2026-04-29 13:53 | 19.89039 | 110.29024 | 33171 ft | 520 kts | 24° |
| 2026-04-29 13:53 | 19.92331 | 110.30625 | 33552 ft | 519 kts | 25° |
| 2026-04-29 13:54 | 19.95614 | 110.32225 | 33856 ft | 519 kts | 25° |
| 2026-04-29 13:54 | 19.98900 | 110.33827 | 34116 ft | 520 kts | 25° |
| 2026-04-29 13:54 | 20.02199 | 110.35401 | 34371 ft | 519 kts | 22° |
| 2026-04-29 13:54 | 20.05622 | 110.36604 | 34599 ft | 517 kts | 13° |
| 2026-04-29 13:55 | 20.09101 | 110.37237 | 34872 ft | 512 kts | 4° |
| 2026-04-29 13:55 | 20.12698 | 110.37282 | 35062 ft | 510 kts | 355° |
| 2026-04-29 13:55 | 20.19632 | 110.36144 | 35100 ft | 506 kts | 348° |
| 2026-04-29 13:56 | 20.26526 | 110.34659 | 35105 ft | 505 kts | 347° |
| 2026-04-29 13:56 | 20.33419 | 110.33146 | 35112 ft | 505 kts | 347° |
| 2026-04-29 13:57 | 20.40324 | 110.31663 | 35109 ft | 506 kts | 348° |
| 2026-04-29 13:57 | 20.47224 | 110.30218 | 35119 ft | 506 kts | 349° |
| 2026-04-29 13:58 | 20.54275 | 110.29878 | 35111 ft | 509 kts | 1° |
| 2026-04-29 13:58 | 20.61323 | 110.30252 | 35116 ft | 512 kts | 2° |
| 2026-04-29 13:59 | 20.68443 | 110.30734 | 35120 ft | 513 kts | 2° |
| 2026-04-29 13:59 | 20.75582 | 110.31210 | 35119 ft | 513 kts | 2° |
| 2026-04-29 14:00 | 20.82720 | 110.31667 | 35122 ft | 513 kts | 2° |
| 2026-04-29 14:00 | 20.89858 | 110.32116 | 35120 ft | 513 kts | 2° |
| 2026-04-29 14:01 | 20.96949 | 110.32563 | 35121 ft | 513 kts | 2° |
| 2026-04-29 14:01 | 21.04081 | 110.33014 | 35122 ft | 513 kts | 2° |
| 2026-04-29 14:02 | 21.11097 | 110.34422 | 35124 ft | 516 kts | 19° |
| 2026-04-29 14:02 | 21.17386 | 110.38137 | 35121 ft | 521 kts | 39° |
| 2026-04-29 14:03 | 21.22679 | 110.43520 | 35117 ft | 528 kts | 46° |
| 2026-04-29 14:03 | 21.27807 | 110.49214 | 35117 ft | 530 kts | 46° |
| 2026-04-29 14:04 | 21.32893 | 110.54868 | 35119 ft | 528 kts | 46° |
| 2026-04-29 14:04 | 21.38025 | 110.60517 | 35120 ft | 528 kts | 46° |
| 2026-04-29 14:05 | 21.43173 | 110.66160 | 35118 ft | 528 kts | 46° |
| 2026-04-29 14:05 | 21.48328 | 110.71814 | 35124 ft | 530 kts | 46° |
| 2026-04-29 14:06 | 21.53468 | 110.77461 | 35117 ft | 532 kts | 46° |
| 2026-04-29 14:06 | 21.58647 | 110.83154 | 35115 ft | 531 kts | 46° |
| 2026-04-29 14:07 | 21.63797 | 110.88823 | 35118 ft | 529 kts | 46° |
| 2026-04-29 14:07 | 21.68928 | 110.94480 | 35118 ft | 528 kts | 46° |
| 2026-04-29 14:08 | 21.74060 | 111.00143 | 35125 ft | 529 kts | 46° |
| 2026-04-29 14:08 | 21.79219 | 111.05843 | 35121 ft | 532 kts | 46° |
| 2026-04-29 14:09 | 21.84374 | 111.11543 | 35122 ft | 532 kts | 46° |
| 2026-04-29 14:09 | 21.89531 | 111.17250 | 35126 ft | 531 kts | 46° |
| 2026-04-29 14:10 | 21.94685 | 111.22961 | 35135 ft | 530 kts | 46° |
| 2026-04-29 14:10 | 21.99827 | 111.28666 | 35142 ft | 531 kts | 46° |
| 2026-04-29 14:11 | 22.04957 | 111.34365 | 35151 ft | 534 kts | 46° |
| 2026-04-29 14:11 | 22.10126 | 111.40109 | 35143 ft | 534 kts | 46° |
| 2026-04-29 14:12 | 22.15332 | 111.45905 | 35149 ft | 534 kts | 46° |
| 2026-04-29 14:12 | 22.20471 | 111.51634 | 35149 ft | 534 kts | 46° |
| 2026-04-29 14:13 | 22.25634 | 111.57396 | 35157 ft | 534 kts | 46° |
| 2026-04-29 14:13 | 22.30823 | 111.63192 | 35153 ft | 536 kts | 46° |
| 2026-04-29 14:14 | 22.36010 | 111.68997 | 35154 ft | 537 kts | 46° |
| 2026-04-29 14:14 | 22.41206 | 111.74813 | 35152 ft | 537 kts | 46° |
| 2026-04-29 14:15 | 22.46358 | 111.80584 | 35143 ft | 537 kts | 46° |
| 2026-04-29 14:15 | 22.51537 | 111.86394 | 35152 ft | 536 kts | 46° |
| 2026-04-29 14:16 | 22.56719 | 111.92216 | 35148 ft | 538 kts | 46° |
| 2026-04-29 14:16 | 22.61922 | 111.98068 | 35150 ft | 539 kts | 46° |
| 2026-04-29 14:17 | 22.67131 | 112.03933 | 35152 ft | 539 kts | 46° |
| 2026-04-29 14:17 | 22.72301 | 112.09759 | 35150 ft | 539 kts | 46° |
| 2026-04-29 14:18 | 22.77495 | 112.15622 | 35158 ft | 538 kts | 46° |
| 2026-04-29 14:18 | 22.82687 | 112.21484 | 35149 ft | 540 kts | 46° |
| 2026-04-29 14:19 | 22.87885 | 112.27366 | 35152 ft | 541 kts | 46° |
| 2026-04-29 14:19 | 22.93108 | 112.33285 | 35151 ft | 541 kts | 46° |
| 2026-04-29 14:20 | 22.98273 | 112.39142 | 35156 ft | 541 kts | 46° |
| 2026-04-29 14:20 | 23.02407 | 112.44305 | 35161 ft | 541 kts | 56° |
| 2026-04-29 14:21 | 23.04777 | 112.49069 | 35157 ft | 541 kts | 70° |
| 2026-04-29 14:21 | 23.05823 | 112.52987 | 35155 ft | 540 kts | 82° |
| 2026-04-29 14:21 | 23.06170 | 112.57036 | 35154 ft | 538 kts | 94° |
| 2026-04-29 14:21 | 23.06034 | 112.61103 | 35148 ft | 540 kts | 97° |
| 2026-04-29 14:22 | 23.05571 | 112.67877 | 35148 ft | 542 kts | 98° |
| 2026-04-29 14:22 | 23.04937 | 112.76063 | 35150 ft | 543 kts | 98° |
| 2026-04-29 14:23 | 23.04248 | 112.85544 | 35150 ft | 542 kts | 98° |
| 2026-04-29 14:23 | 23.03777 | 112.92334 | 35146 ft | 542 kts | 98° |
| 2026-04-29 14:24 | 23.03212 | 113.00495 | 35141 ft | 542 kts | 98° |
| 2026-04-29 14:24 | 23.02643 | 113.08656 | 35142 ft | 542 kts | 98° |
| 2026-04-29 14:25 | 23.02091 | 113.16823 | 35130 ft | 542 kts | 96° |
| 2026-04-29 14:25 | 23.02544 | 113.25019 | 35133 ft | 545 kts | 87° |
| 2026-04-29 14:26 | 23.03397 | 113.33185 | 35132 ft | 544 kts | 86° |
| 2026-04-29 14:26 | 23.04297 | 113.41334 | 35124 ft | 543 kts | 86° |
| 2026-04-29 14:27 | 23.05180 | 113.49473 | 35128 ft | 543 kts | 86° |
| 2026-04-29 14:28 | 23.06471 | 113.61651 | 35124 ft | 542 kts | 86° |
| 2026-04-29 14:28 | 23.07325 | 113.69783 | 35120 ft | 542 kts | 86° |
| 2026-04-29 14:29 | 23.08371 | 113.77901 | 35117 ft | 545 kts | 78° |
| 2026-04-29 14:29 | 23.11286 | 113.85488 | 35119 ft | 546 kts | 57° |
| 2026-04-29 14:29 | 23.13588 | 113.88741 | 35133 ft | 544 kts | 46° |
| 2026-04-29 14:30 | 23.16351 | 113.91539 | 35140 ft | 542 kts | 39° |
| 2026-04-29 14:30 | 23.22192 | 113.96666 | 35132 ft | 539 kts | 37° |
| 2026-04-29 14:31 | 23.28113 | 114.01673 | 35131 ft | 538 kts | 37° |
| 2026-04-29 14:31 | 23.34014 | 114.06677 | 35136 ft | 538 kts | 37° |
| 2026-04-29 14:32 | 23.39892 | 114.11669 | 35139 ft | 539 kts | 37° |
| 2026-04-29 14:32 | 23.45798 | 114.16707 | 35147 ft | 539 kts | 37° |
| 2026-04-29 14:33 | 23.51701 | 114.21756 | 35147 ft | 539 kts | 37° |
| 2026-04-29 14:33 | 23.57603 | 114.26809 | 35155 ft | 539 kts | 37° |
| 2026-04-29 14:34 | 23.63505 | 114.31871 | 35177 ft | 540 kts | 37° |
| 2026-04-29 14:34 | 23.69452 | 114.36894 | 35164 ft | 541 kts | 36° |
| 2026-04-29 14:35 | 23.75490 | 114.41803 | 35169 ft | 541 kts | 35° |
| 2026-04-29 14:35 | 23.81495 | 114.46687 | 35170 ft | 541 kts | 36° |
| 2026-04-29 14:36 | 23.87524 | 114.51628 | 35177 ft | 541 kts | 36° |
| 2026-04-29 14:36 | 23.93551 | 114.56590 | 35186 ft | 543 kts | 36° |
| 2026-04-29 14:37 | 23.99590 | 114.61568 | 35190 ft | 544 kts | 36° |
| 2026-04-29 14:37 | 24.05601 | 114.66530 | 35198 ft | 544 kts | 36° |
| 2026-04-29 14:38 | 24.11646 | 114.71525 | 35193 ft | 544 kts | 36° |
| 2026-04-29 14:38 | 24.17691 | 114.76525 | 35203 ft | 546 kts | 35° |
| 2026-04-29 14:39 | 24.23769 | 114.81555 | 35205 ft | 547 kts | 36° |
| 2026-04-29 14:39 | 24.30232 | 114.85480 | 35204 ft | 538 kts | 16° |
| 2026-04-29 14:40 | 24.37407 | 114.87613 | 35212 ft | 531 kts | 9° |
| 2026-04-29 14:40 | 24.44552 | 114.89371 | 35217 ft | 530 kts | 8° |
| 2026-04-29 14:41 | 24.51769 | 114.91102 | 35226 ft | 531 kts | 8° |
| 2026-04-29 14:41 | 24.58998 | 114.92869 | 35236 ft | 532 kts | 8° |
| 2026-04-29 14:42 | 24.66097 | 114.94624 | 35234 ft | 532 kts | 8° |
| 2026-04-29 14:42 | 24.73334 | 114.96421 | 35241 ft | 532 kts | 8° |
| 2026-04-29 14:43 | 24.80518 | 114.98202 | 35242 ft | 532 kts | 8° |